sensor_id;sensor_type;location;lat;lon;timestamp;temperature;humidity
1956;DHT22;978;48.314;11.562;2023-07-24T00:00:22;23.60;78.80
1956;DHT22;978;48.314;11.562;2023-07-24T00:02:49;23.60;78.80
1956;DHT22;978;48.314;11.562;2023-07-24T00:05:17;23.60;78.70
1956;DHT22;978;48.314;11.562;2023-07-24T00:07:43;23.60;78.70
1956;DHT22;978;48.314;11.562;2023-07-24T00:10:10;23.60;79.30
1956;DHT22;978;48.314;11.562;2023-07-24T00:12:37;23.60;78.70
1956;DHT22;978;48.314;11.562;2023-07-24T00:15:04;23.60;78.70
1956;DHT22;978;48.314;11.562;2023-07-24T00:17:31;23.60;78.70
1956;DHT22;978;48.314;11.562;2023-07-24T00:19:58;23.60;78.70
1956;DHT22;978;48.314;11.562;2023-07-24T00:22:26;23.60;78.70
1956;DHT22;978;48.314;11.562;2023-07-24T00:24:53;23.50;78.60
1956;DHT22;978;48.314;11.562;2023-07-24T00:27:19;23.60;78.70
1956;DHT22;978;48.314;11.562;2023-07-24T00:29:46;23.60;78.70
1956;DHT22;978;48.314;11.562;2023-07-24T00:32:13;23.60;78.70
1956;DHT22;978;48.314;11.562;2023-07-24T00:34:40;23.60;78.70
1956;DHT22;978;48.314;11.562;2023-07-24T00:37:07;23.60;78.70
1956;DHT22;978;48.314;11.562;2023-07-24T00:39:35;23.60;78.70
1956;DHT22;978;48.314;11.562;2023-07-24T00:42:02;23.60;78.70
1956;DHT22;978;48.314;11.562;2023-07-24T00:44:30;23.60;78.60
1956;DHT22;978;48.314;11.562;2023-07-24T00:46:57;23.60;78.60
1956;DHT22;978;48.314;11.562;2023-07-24T00:49:24;24.00;78.80
1956;DHT22;978;48.314;11.562;2023-07-24T00:51:51;23.60;78.60
1956;DHT22;978;48.314;11.562;2023-07-24T00:54:19;23.60;78.60
1956;DHT22;978;48.314;11.562;2023-07-24T00:56:48;23.60;78.60
1956;DHT22;978;48.314;11.562;2023-07-24T00:59:15;23.60;78.60
1956;DHT22;978;48.314;11.562;2023-07-24T01:01:42;23.60;78.50
1956;DHT22;978;48.314;11.562;2023-07-24T01:04:10;23.60;78.60
1956;DHT22;978;48.314;11.562;2023-07-24T01:06:37;23.60;78.60
1956;DHT22;978;48.314;11.562;2023-07-24T01:09:05;23.60;78.50
1956;DHT22;978;48.314;11.562;2023-07-24T01:11:38;23.60;78.60
1956;DHT22;978;48.314;11.562;2023-07-24T01:14:23;23.60;78.50
1956;DHT22;978;48.314;11.562;2023-07-24T01:16:54;23.60;78.60
1956;DHT22;978;48.314;11.562;2023-07-24T01:19:33;23.60;78.50
1956;DHT22;978;48.314;11.562;2023-07-24T01:22:09;23.60;78.50
1956;DHT22;978;48.314;11.562;2023-07-24T01:24:51;23.60;78.50
1956;DHT22;978;48.314;11.562;2023-07-24T01:27:23;23.60;78.50
1956;DHT22;978;48.314;11.562;2023-07-24T01:29:50;23.60;78.50
1956;DHT22;978;48.314;11.562;2023-07-24T01:32:17;23.60;78.50
1956;DHT22;978;48.314;11.562;2023-07-24T01:34:46;23.60;78.50
1956;DHT22;978;48.314;11.562;2023-07-24T01:37:14;23.60;78.50
1956;DHT22;978;48.314;11.562;2023-07-24T01:39:42;23.60;78.50
1956;DHT22;978;48.314;11.562;2023-07-24T01:42:12;23.60;78.50
1956;DHT22;978;48.314;11.562;2023-07-24T01:44:43;23.60;78.50
1956;DHT22;978;48.314;11.562;2023-07-24T01:47:11;23.60;78.50
1956;DHT22;978;48.314;11.562;2023-07-24T01:49:38;23.60;78.50
1956;DHT22;978;48.314;11.562;2023-07-24T01:52:05;23.60;78.50
1956;DHT22;978;48.314;11.562;2023-07-24T01:54:35;23.60;78.50
1956;DHT22;978;48.314;11.562;2023-07-24T01:57:02;23.60;78.40
1956;DHT22;978;48.314;11.562;2023-07-24T01:59:29;23.60;78.50
1956;DHT22;978;48.314;11.562;2023-07-24T02:01:59;23.60;78.50
1956;DHT22;978;48.314;11.562;2023-07-24T02:04:26;23.60;78.50
1956;DHT22;978;48.314;11.562;2023-07-24T02:06:55;23.60;78.50
1956;DHT22;978;48.314;11.562;2023-07-24T02:09:22;23.60;78.50
1956;DHT22;978;48.314;11.562;2023-07-24T02:11:49;23.60;78.50
1956;DHT22;978;48.314;11.562;2023-07-24T02:14:18;23.60;78.40
1956;DHT22;978;48.314;11.562;2023-07-24T02:16:46;23.60;78.40
1956;DHT22;978;48.314;11.562;2023-07-24T02:19:15;23.60;78.40
1956;DHT22;978;48.314;11.562;2023-07-24T02:21:42;23.60;78.50
1956;DHT22;978;48.314;11.562;2023-07-24T02:24:10;23.60;78.50
1956;DHT22;978;48.314;11.562;2023-07-24T02:26:38;23.60;78.50
1956;DHT22;978;48.314;11.562;2023-07-24T02:29:05;23.60;78.50
1956;DHT22;978;48.314;11.562;2023-07-24T02:31:31;23.60;78.50
1956;DHT22;978;48.314;11.562;2023-07-24T02:33:58;23.60;78.60
1956;DHT22;978;48.314;11.562;2023-07-24T02:36:29;23.60;78.50
1956;DHT22;978;48.314;11.562;2023-07-24T02:38:55;23.60;78.50
1956;DHT22;978;48.314;11.562;2023-07-24T02:41:22;23.60;78.50
1956;DHT22;978;48.314;11.562;2023-07-24T02:43:49;23.60;78.50
1956;DHT22;978;48.314;11.562;2023-07-24T02:46:15;23.60;78.50
1956;DHT22;978;48.314;11.562;2023-07-24T02:48:43;23.50;78.50
1956;DHT22;978;48.314;11.562;2023-07-24T02:51:10;23.60;78.60
1956;DHT22;978;48.314;11.562;2023-07-24T02:53:40;23.60;78.50
1956;DHT22;978;48.314;11.562;2023-07-24T02:56:08;23.60;78.50
1956;DHT22;978;48.314;11.562;2023-07-24T02:58:36;23.60;78.50
1956;DHT22;978;48.314;11.562;2023-07-24T03:01:04;23.60;78.60
1956;DHT22;978;48.314;11.562;2023-07-24T03:03:32;23.60;78.60
1956;DHT22;978;48.314;11.562;2023-07-24T03:06:00;23.50;78.60
1956;DHT22;978;48.314;11.562;2023-07-24T03:08:27;23.60;78.60
1956;DHT22;978;48.314;11.562;2023-07-24T03:10:55;23.60;78.70
1956;DHT22;978;48.314;11.562;2023-07-24T03:13:22;23.60;78.70
1956;DHT22;978;48.314;11.562;2023-07-24T03:15:53;23.60;78.70
1956;DHT22;978;48.314;11.562;2023-07-24T03:18:20;23.60;78.70
1956;DHT22;978;48.314;11.562;2023-07-24T03:20:47;23.60;78.70
1956;DHT22;978;48.314;11.562;2023-07-24T03:23:15;23.60;78.70
1956;DHT22;978;48.314;11.562;2023-07-24T03:25:42;23.60;78.70
1956;DHT22;978;48.314;11.562;2023-07-24T03:28:12;23.60;78.70
1956;DHT22;978;48.314;11.562;2023-07-24T03:30:40;23.60;78.70
1956;DHT22;978;48.314;11.562;2023-07-24T03:33:08;23.60;78.70
1956;DHT22;978;48.314;11.562;2023-07-24T03:35:34;23.50;78.70
1956;DHT22;978;48.314;11.562;2023-07-24T03:38:01;23.60;78.70
1956;DHT22;978;48.314;11.562;2023-07-24T03:40:28;23.60;78.80
1956;DHT22;978;48.314;11.562;2023-07-24T03:42:56;23.60;78.80
1956;DHT22;978;48.314;11.562;2023-07-24T03:45:25;23.60;78.80
1956;DHT22;978;48.314;11.562;2023-07-24T03:47:52;23.60;78.80
1956;DHT22;978;48.314;11.562;2023-07-24T03:50:19;23.60;78.80
1956;DHT22;978;48.314;11.562;2023-07-24T03:52:46;23.60;78.80
1956;DHT22;978;48.314;11.562;2023-07-24T03:55:16;23.60;78.90
1956;DHT22;978;48.314;11.562;2023-07-24T03:57:45;23.60;78.90
1956;DHT22;978;48.314;11.562;2023-07-24T04:00:13;22.40;78.30
1956;DHT22;978;48.314;11.562;2023-07-24T04:02:55;23.60;79.00
1956;DHT22;978;48.314;11.562;2023-07-24T04:05:21;23.60;79.00
1956;DHT22;978;48.314;11.562;2023-07-24T04:07:50;23.60;79.00
1956;DHT22;978;48.314;11.562;2023-07-24T04:10:16;23.60;79.10
1956;DHT22;978;48.314;11.562;2023-07-24T04:12:45;23.60;79.10
1956;DHT22;978;48.314;11.562;2023-07-24T04:15:15;23.60;79.10
1956;DHT22;978;48.314;11.562;2023-07-24T04:17:46;23.60;79.10
1956;DHT22;978;48.314;11.562;2023-07-24T04:20:13;23.60;79.20
1956;DHT22;978;48.314;11.562;2023-07-24T04:22:41;23.60;79.20
1956;DHT22;978;48.314;11.562;2023-07-24T04:25:08;23.50;79.10
1956;DHT22;978;48.314;11.562;2023-07-24T04:27:36;23.60;79.20
1956;DHT22;978;48.314;11.562;2023-07-24T04:30:03;23.60;79.30
1956;DHT22;978;48.314;11.562;2023-07-24T04:32:32;23.60;79.30
1956;DHT22;978;48.314;11.562;2023-07-24T04:35:03;23.60;79.30
1956;DHT22;978;48.314;11.562;2023-07-24T04:37:30;23.60;79.40
1956;DHT22;978;48.314;11.562;2023-07-24T04:39:57;23.60;79.40
1956;DHT22;978;48.314;11.562;2023-07-24T04:42:23;23.60;79.40
1956;DHT22;978;48.314;11.562;2023-07-24T04:44:50;23.60;79.40
1956;DHT22;978;48.314;11.562;2023-07-24T04:47:17;23.60;79.40
1956;DHT22;978;48.314;11.562;2023-07-24T04:49:45;23.60;79.50
1956;DHT22;978;48.314;11.562;2023-07-24T04:52:14;23.60;79.50
1956;DHT22;978;48.314;11.562;2023-07-24T04:54:42;23.90;79.70
1956;DHT22;978;48.314;11.562;2023-07-24T04:57:09;23.50;79.50
1956;DHT22;978;48.314;11.562;2023-07-24T04:59:36;23.60;79.60
1956;DHT22;978;48.314;11.562;2023-07-24T05:02:04;23.60;79.60
1956;DHT22;978;48.314;11.562;2023-07-24T05:04:31;23.60;79.60
1956;DHT22;978;48.314;11.562;2023-07-24T05:07:00;23.60;79.60
1956;DHT22;978;48.314;11.562;2023-07-24T05:09:28;23.60;79.70
1956;DHT22;978;48.314;11.562;2023-07-24T05:11:55;23.60;79.70
1956;DHT22;978;48.314;11.562;2023-07-24T05:14:22;23.60;79.70
1956;DHT22;978;48.314;11.562;2023-07-24T05:16:50;23.60;79.80
1956;DHT22;978;48.314;11.562;2023-07-24T05:19:16;23.60;79.80
1956;DHT22;978;48.314;11.562;2023-07-24T05:21:44;23.60;79.80
1956;DHT22;978;48.314;11.562;2023-07-24T05:24:11;23.70;79.80
1956;DHT22;978;48.314;11.562;2023-07-24T05:26:40;23.90;80.00
1956;DHT22;978;48.314;11.562;2023-07-24T05:29:07;23.60;79.90
1956;DHT22;978;48.314;11.562;2023-07-24T05:31:35;23.60;80.00
1956;DHT22;978;48.314;11.562;2023-07-24T05:34:03;23.60;80.00
1956;DHT22;978;48.314;11.562;2023-07-24T05:36:31;23.50;79.90
1956;DHT22;978;48.314;11.562;2023-07-24T05:39:00;23.60;80.00
1956;DHT22;978;48.314;11.562;2023-07-24T05:41:28;23.60;80.10
1956;DHT22;978;48.314;11.562;2023-07-24T05:43:56;23.50;80.10
1956;DHT22;978;48.314;11.562;2023-07-24T05:46:25;23.60;80.30
1956;DHT22;978;48.314;11.562;2023-07-24T05:48:53;23.60;80.20
1956;DHT22;978;48.314;11.562;2023-07-24T05:51:22;23.60;80.20
1956;DHT22;978;48.314;11.562;2023-07-24T05:53:49;23.60;80.30
1956;DHT22;978;48.314;11.562;2023-07-24T05:56:17;23.60;80.30
1956;DHT22;978;48.314;11.562;2023-07-24T05:58:43;23.90;80.50
1956;DHT22;978;48.314;11.562;2023-07-24T06:01:12;23.60;80.40
1956;DHT22;978;48.314;11.562;2023-07-24T06:03:41;23.60;80.40
1956;DHT22;978;48.314;11.562;2023-07-24T06:06:10;23.60;80.40
1956;DHT22;978;48.314;11.562;2023-07-24T06:08:37;23.60;80.50
1956;DHT22;978;48.314;11.562;2023-07-24T06:11:05;23.60;80.50
1956;DHT22;978;48.314;11.562;2023-07-24T06:13:32;23.60;80.50
1956;DHT22;978;48.314;11.562;2023-07-24T06:15:59;23.60;80.60
1956;DHT22;978;48.314;11.562;2023-07-24T06:18:27;23.60;80.60
1956;DHT22;978;48.314;11.562;2023-07-24T06:20:54;23.60;80.60
1956;DHT22;978;48.314;11.562;2023-07-24T06:23:20;23.60;80.60
1956;DHT22;978;48.314;11.562;2023-07-24T06:25:47;23.60;80.60
1956;DHT22;978;48.314;11.562;2023-07-24T06:28:15;23.60;80.60
1956;DHT22;978;48.314;11.562;2023-07-24T06:30:42;23.60;80.70
1956;DHT22;978;48.314;11.562;2023-07-24T06:33:10;23.60;80.70
1956;DHT22;978;48.314;11.562;2023-07-24T06:35:38;23.60;80.70
1956;DHT22;978;48.314;11.562;2023-07-24T06:38:05;23.60;80.70
1956;DHT22;978;48.314;11.562;2023-07-24T06:40:35;23.60;80.70
1956;DHT22;978;48.314;11.562;2023-07-24T06:43:01;23.60;80.70
1956;DHT22;978;48.314;11.562;2023-07-24T06:45:31;23.60;80.80
1956;DHT22;978;48.314;11.562;2023-07-24T06:47:57;23.60;80.80
1956;DHT22;978;48.314;11.562;2023-07-24T06:50:26;23.90;81.00
1956;DHT22;978;48.314;11.562;2023-07-24T06:52:54;23.60;80.90
1956;DHT22;978;48.314;11.562;2023-07-24T06:55:21;23.60;80.90
1956;DHT22;978;48.314;11.562;2023-07-24T06:57:48;23.60;80.90
1956;DHT22;978;48.314;11.562;2023-07-24T07:00:16;23.70;80.90
1956;DHT22;978;48.314;11.562;2023-07-24T07:02:44;23.60;80.90
1956;DHT22;978;48.314;11.562;2023-07-24T07:05:11;23.60;80.90
1956;DHT22;978;48.314;11.562;2023-07-24T07:07:38;23.60;80.90
1956;DHT22;978;48.314;11.562;2023-07-24T07:10:10;23.60;81.00
1956;DHT22;978;48.314;11.562;2023-07-24T07:12:38;23.60;81.00
1956;DHT22;978;48.314;11.562;2023-07-24T07:15:06;23.60;81.00
1956;DHT22;978;48.314;11.562;2023-07-24T07:17:33;23.60;81.00
1956;DHT22;978;48.314;11.562;2023-07-24T07:20:02;23.60;81.00
1956;DHT22;978;48.314;11.562;2023-07-24T07:22:29;23.60;81.10
1956;DHT22;978;48.314;11.562;2023-07-24T07:24:56;23.60;81.10
1956;DHT22;978;48.314;11.562;2023-07-24T07:27:26;23.60;81.10
1956;DHT22;978;48.314;11.562;2023-07-24T07:29:52;23.60;81.20
1956;DHT22;978;48.314;11.562;2023-07-24T07:32:21;23.60;81.20
1956;DHT22;978;48.314;11.562;2023-07-24T07:34:47;23.60;81.20
1956;DHT22;978;48.314;11.562;2023-07-24T07:37:14;23.60;81.20
1956;DHT22;978;48.314;11.562;2023-07-24T07:39:43;23.60;81.30
1956;DHT22;978;48.314;11.562;2023-07-24T07:42:10;23.60;81.30
1956;DHT22;978;48.314;11.562;2023-07-24T07:44:42;23.60;81.30
1956;DHT22;978;48.314;11.562;2023-07-24T07:47:09;23.60;81.20
1956;DHT22;978;48.314;11.562;2023-07-24T07:49:36;23.60;81.30
1956;DHT22;978;48.314;11.562;2023-07-24T07:52:04;23.60;81.30
1956;DHT22;978;48.314;11.562;2023-07-24T07:54:31;23.60;81.20
1956;DHT22;978;48.314;11.562;2023-07-24T07:56:59;23.60;81.20
1956;DHT22;978;48.314;11.562;2023-07-24T07:59:26;23.60;81.30
1956;DHT22;978;48.314;11.562;2023-07-24T08:01:55;23.60;81.40
1956;DHT22;978;48.314;11.562;2023-07-24T08:04:22;23.60;81.50
1956;DHT22;978;48.314;11.562;2023-07-24T08:06:50;23.60;81.40
1956;DHT22;978;48.314;11.562;2023-07-24T08:09:17;23.60;81.40
1956;DHT22;978;48.314;11.562;2023-07-24T08:11:47;23.60;81.50
1956;DHT22;978;48.314;11.562;2023-07-24T08:14:14;23.60;81.50
1956;DHT22;978;48.314;11.562;2023-07-24T08:16:41;23.60;81.50
1956;DHT22;978;48.314;11.562;2023-07-24T08:19:10;23.60;81.50
1956;DHT22;978;48.314;11.562;2023-07-24T08:21:37;23.60;81.50
1956;DHT22;978;48.314;11.562;2023-07-24T08:24:05;23.60;81.50
1956;DHT22;978;48.314;11.562;2023-07-24T08:26:31;23.60;81.50
1956;DHT22;978;48.314;11.562;2023-07-24T08:28:59;23.60;81.50
1956;DHT22;978;48.314;11.562;2023-07-24T08:31:26;23.60;81.50
1956;DHT22;978;48.314;11.562;2023-07-24T08:33:54;23.60;81.40
1956;DHT22;978;48.314;11.562;2023-07-24T08:36:28;23.60;81.40
1956;DHT22;978;48.314;11.562;2023-07-24T08:38:56;23.60;81.40
1956;DHT22;978;48.314;11.562;2023-07-24T08:41:24;23.60;81.40
1956;DHT22;978;48.314;11.562;2023-07-24T08:43:50;23.60;81.50
1956;DHT22;978;48.314;11.562;2023-07-24T08:46:19;23.60;81.40
1956;DHT22;978;48.314;11.562;2023-07-24T08:48:48;23.60;81.40
1956;DHT22;978;48.314;11.562;2023-07-24T08:51:16;23.60;81.50
1956;DHT22;978;48.314;11.562;2023-07-24T08:53:46;23.60;81.50
1956;DHT22;978;48.314;11.562;2023-07-24T08:56:15;23.60;81.50
1956;DHT22;978;48.314;11.562;2023-07-24T08:58:43;23.60;81.50
1956;DHT22;978;48.314;11.562;2023-07-24T09:01:10;23.60;81.50
1956;DHT22;978;48.314;11.562;2023-07-24T09:03:39;23.60;81.50
1956;DHT22;978;48.314;11.562;2023-07-24T09:06:08;23.60;81.50
1956;DHT22;978;48.314;11.562;2023-07-24T09:08:37;23.60;81.60
1956;DHT22;978;48.314;11.562;2023-07-24T09:11:07;23.60;81.60
1956;DHT22;978;48.314;11.562;2023-07-24T09:13:36;23.60;81.70
1956;DHT22;978;48.314;11.562;2023-07-24T09:16:03;23.60;81.70
1956;DHT22;978;48.314;11.562;2023-07-24T09:18:38;23.60;81.80
1956;DHT22;978;48.314;11.562;2023-07-24T09:21:05;23.60;81.80
1956;DHT22;978;48.314;11.562;2023-07-24T09:23:33;23.50;81.80
1956;DHT22;978;48.314;11.562;2023-07-24T09:26:06;23.60;81.90
1956;DHT22;978;48.314;11.562;2023-07-24T09:28:33;23.60;82.00
1956;DHT22;978;48.314;11.562;2023-07-24T09:31:01;23.60;82.00
1956;DHT22;978;48.314;11.562;2023-07-24T09:33:34;23.60;82.00
1956;DHT22;978;48.314;11.562;2023-07-24T09:36:02;23.60;82.10
1956;DHT22;978;48.314;11.562;2023-07-24T09:38:29;23.60;82.10
1956;DHT22;978;48.314;11.562;2023-07-24T09:40:56;23.60;82.10
1956;DHT22;978;48.314;11.562;2023-07-24T09:43:26;23.80;82.30
1956;DHT22;978;48.314;11.562;2023-07-24T09:45:54;23.60;82.20
1956;DHT22;978;48.314;11.562;2023-07-24T09:48:22;23.60;82.20
1956;DHT22;978;48.314;11.562;2023-07-24T09:50:54;23.70;82.30
1956;DHT22;978;48.314;11.562;2023-07-24T09:53:25;23.60;82.30
1956;DHT22;978;48.314;11.562;2023-07-24T09:56:02;23.60;82.30
1956;DHT22;978;48.314;11.562;2023-07-24T09:58:32;23.60;82.30
1956;DHT22;978;48.314;11.562;2023-07-24T10:01:00;23.60;82.30
1956;DHT22;978;48.314;11.562;2023-07-24T10:03:28;23.60;82.30
1956;DHT22;978;48.314;11.562;2023-07-24T10:05:55;23.60;82.30
1956;DHT22;978;48.314;11.562;2023-07-24T10:08:22;23.60;82.40
1956;DHT22;978;48.314;11.562;2023-07-24T10:10:51;23.60;82.40
1956;DHT22;978;48.314;11.562;2023-07-24T10:13:20;23.60;82.40
1956;DHT22;978;48.314;11.562;2023-07-24T10:15:49;23.60;82.50
1956;DHT22;978;48.314;11.562;2023-07-24T10:18:17;23.70;82.50
1956;DHT22;978;48.314;11.562;2023-07-24T10:20:44;23.60;82.50
1956;DHT22;978;48.314;11.562;2023-07-24T10:23:16;23.60;82.50
1956;DHT22;978;48.314;11.562;2023-07-24T10:25:45;23.60;82.60
1956;DHT22;978;48.314;11.562;2023-07-24T10:28:12;23.60;82.60
1956;DHT22;978;48.314;11.562;2023-07-24T10:30:42;23.60;82.60
1956;DHT22;978;48.314;11.562;2023-07-24T10:33:13;23.60;82.60
1956;DHT22;978;48.314;11.562;2023-07-24T10:35:42;24.50;83.10
1956;DHT22;978;48.314;11.562;2023-07-24T10:38:10;23.60;82.70
1956;DHT22;978;48.314;11.562;2023-07-24T10:40:36;23.60;82.70
1956;DHT22;978;48.314;11.562;2023-07-24T10:43:07;23.60;82.70
1956;DHT22;978;48.314;11.562;2023-07-24T10:45:42;23.60;82.80
1956;DHT22;978;48.314;11.562;2023-07-24T10:48:09;23.60;82.80
1956;DHT22;978;48.314;11.562;2023-07-24T10:50:42;23.60;83.40
1956;DHT22;978;48.314;11.562;2023-07-24T10:53:09;23.60;82.80
1956;DHT22;978;48.314;11.562;2023-07-24T10:55:36;24.00;83.00
1956;DHT22;978;48.314;11.562;2023-07-24T10:58:03;23.80;83.00
1956;DHT22;978;48.314;11.562;2023-07-24T11:00:30;23.60;82.90
1956;DHT22;978;48.314;11.562;2023-07-24T11:02:57;23.70;83.10
1956;DHT22;978;48.314;11.562;2023-07-24T11:05:25;23.50;83.20
1956;DHT22;978;48.314;11.562;2023-07-24T11:07:58;23.60;83.20
1956;DHT22;978;48.314;11.562;2023-07-24T11:10:28;22.30;82.50
1956;DHT22;978;48.314;11.562;2023-07-24T11:12:56;24.90;84.00
1956;DHT22;978;48.314;11.562;2023-07-24T11:15:24;23.50;83.30
1956;DHT22;978;48.314;11.562;2023-07-24T11:17:59;24.70;83.80
1956;DHT22;978;48.314;11.562;2023-07-24T11:20:27;23.50;83.30
1956;DHT22;978;48.314;11.562;2023-07-24T11:22:58;24.90;84.40
1956;DHT22;978;48.314;11.562;2023-07-24T11:25:27;25.20;84.10
1956;DHT22;978;48.314;11.562;2023-07-24T11:27:54;23.60;83.20
1956;DHT22;978;48.314;11.562;2023-07-24T11:30:21;25.00;83.90
1956;DHT22;978;48.314;11.562;2023-07-24T11:32:49;23.50;83.30
1956;DHT22;978;48.314;11.562;2023-07-24T11:35:16;23.60;83.10
1956;DHT22;978;48.314;11.562;2023-07-24T11:37:43;23.60;83.10
1956;DHT22;978;48.314;11.562;2023-07-24T11:40:13;23.60;83.10
1956;DHT22;978;48.314;11.562;2023-07-24T11:42:43;23.60;83.10
1956;DHT22;978;48.314;11.562;2023-07-24T11:45:10;23.60;83.10
1956;DHT22;978;48.314;11.562;2023-07-24T11:47:42;23.60;83.10
1956;DHT22;978;48.314;11.562;2023-07-24T11:50:09;23.60;83.10
1956;DHT22;978;48.314;11.562;2023-07-24T11:52:43;23.70;83.20
1956;DHT22;978;48.314;11.562;2023-07-24T11:55:12;23.60;83.10
1956;DHT22;978;48.314;11.562;2023-07-24T11:57:41;23.60;83.10
1956;DHT22;978;48.314;11.562;2023-07-24T12:00:18;23.60;83.10
1956;DHT22;978;48.314;11.562;2023-07-24T12:02:45;23.60;83.10
1956;DHT22;978;48.314;11.562;2023-07-24T12:05:12;23.60;83.10
1956;DHT22;978;48.314;11.562;2023-07-24T12:07:39;23.60;83.10
1956;DHT22;978;48.314;11.562;2023-07-24T12:10:06;23.60;83.10
1956;DHT22;978;48.314;11.562;2023-07-24T12:12:39;23.60;83.10
1956;DHT22;978;48.314;11.562;2023-07-24T12:15:07;23.60;83.10
1956;DHT22;978;48.314;11.562;2023-07-24T12:17:37;23.60;83.10
1956;DHT22;978;48.314;11.562;2023-07-24T12:20:05;23.60;83.10
1956;DHT22;978;48.314;11.562;2023-07-24T12:22:33;23.60;83.10
1956;DHT22;978;48.314;11.562;2023-07-24T12:25:00;23.60;83.20
1956;DHT22;978;48.314;11.562;2023-07-24T12:27:27;23.60;83.20
1956;DHT22;978;48.314;11.562;2023-07-24T12:29:55;23.60;83.20
1956;DHT22;978;48.314;11.562;2023-07-24T12:32:22;25.10;84.00
1956;DHT22;978;48.314;11.562;2023-07-24T12:34:49;23.60;83.20
1956;DHT22;978;48.314;11.562;2023-07-24T12:37:17;23.60;83.10
1956;DHT22;978;48.314;11.562;2023-07-24T12:39:44;23.80;83.30
1956;DHT22;978;48.314;11.562;2023-07-24T12:42:12;23.60;83.10
1956;DHT22;978;48.314;11.562;2023-07-24T12:44:40;23.60;83.10
1956;DHT22;978;48.314;11.562;2023-07-24T12:47:09;23.60;83.10
1956;DHT22;978;48.314;11.562;2023-07-24T12:49:36;23.60;83.20
1956;DHT22;978;48.314;11.562;2023-07-24T12:52:03;23.60;83.10
1956;DHT22;978;48.314;11.562;2023-07-24T12:54:31;23.60;83.20
1956;DHT22;978;48.314;11.562;2023-07-24T12:56:59;23.60;83.20
1956;DHT22;978;48.314;11.562;2023-07-24T12:59:26;23.60;83.20
1956;DHT22;978;48.314;11.562;2023-07-24T13:01:53;23.60;83.30
1956;DHT22;978;48.314;11.562;2023-07-24T13:04:22;23.60;83.30
1956;DHT22;978;48.314;11.562;2023-07-24T13:06:49;23.60;83.30
1956;DHT22;978;48.314;11.562;2023-07-24T13:09:17;23.60;83.30
1956;DHT22;978;48.314;11.562;2023-07-24T13:11:44;23.60;83.40
1956;DHT22;978;48.314;11.562;2023-07-24T13:14:13;23.60;83.40
1956;DHT22;978;48.314;11.562;2023-07-24T13:16:39;23.60;83.80
1956;DHT22;978;48.314;11.562;2023-07-24T13:19:06;23.60;84.40
1956;DHT22;978;48.314;11.562;2023-07-24T13:21:34;23.60;83.70
1956;DHT22;978;48.314;11.562;2023-07-24T13:24:01;23.60;84.00
1956;DHT22;978;48.314;11.562;2023-07-24T13:26:31;23.60;84.20
1956;DHT22;978;48.314;11.562;2023-07-24T13:28:58;23.60;84.30
1956;DHT22;978;48.314;11.562;2023-07-24T13:31:24;23.60;84.40
1956;DHT22;978;48.314;11.562;2023-07-24T13:33:53;23.60;84.20
1956;DHT22;978;48.314;11.562;2023-07-24T13:36:20;23.60;84.00
1956;DHT22;978;48.314;11.562;2023-07-24T13:38:48;23.60;84.00
1956;DHT22;978;48.314;11.562;2023-07-24T13:41:15;23.60;84.00
1956;DHT22;978;48.314;11.562;2023-07-24T13:43:42;23.60;84.00
1956;DHT22;978;48.314;11.562;2023-07-24T13:46:09;23.60;84.00
1956;DHT22;978;48.314;11.562;2023-07-24T13:48:36;23.60;84.00
1956;DHT22;978;48.314;11.562;2023-07-24T13:51:02;23.60;84.00
1956;DHT22;978;48.314;11.562;2023-07-24T13:53:29;23.70;84.00
1956;DHT22;978;48.314;11.562;2023-07-24T13:55:57;23.60;84.00
1956;DHT22;978;48.314;11.562;2023-07-24T13:58:25;23.60;84.00
1956;DHT22;978;48.314;11.562;2023-07-24T14:00:52;23.60;84.00
1956;DHT22;978;48.314;11.562;2023-07-24T14:03:18;23.60;84.00
1956;DHT22;978;48.314;11.562;2023-07-24T14:05:45;23.60;84.10
1956;DHT22;978;48.314;11.562;2023-07-24T14:08:13;23.60;84.10
1956;DHT22;978;48.314;11.562;2023-07-24T14:10:40;23.60;84.10
1956;DHT22;978;48.314;11.562;2023-07-24T14:13:08;23.60;84.10
1956;DHT22;978;48.314;11.562;2023-07-24T14:15:35;23.60;84.10
1956;DHT22;978;48.314;11.562;2023-07-24T14:18:02;23.60;84.10
1956;DHT22;978;48.314;11.562;2023-07-24T14:20:29;23.60;84.20
1956;DHT22;978;48.314;11.562;2023-07-24T14:22:56;23.60;84.20
1956;DHT22;978;48.314;11.562;2023-07-24T14:25:22;23.50;84.20
1956;DHT22;978;48.314;11.562;2023-07-24T14:27:49;23.70;84.30
1956;DHT22;978;48.314;11.562;2023-07-24T14:30:17;23.60;84.20
1956;DHT22;978;48.314;11.562;2023-07-24T14:32:44;24.00;84.50
1956;DHT22;978;48.314;11.562;2023-07-24T14:35:11;23.60;84.30
1956;DHT22;978;48.314;11.562;2023-07-24T14:37:37;23.60;84.30
1956;DHT22;978;48.314;11.562;2023-07-24T14:40:05;23.60;84.30
1956;DHT22;978;48.314;11.562;2023-07-24T14:42:32;23.60;84.30
1956;DHT22;978;48.314;11.562;2023-07-24T14:44:59;23.60;84.30
1956;DHT22;978;48.314;11.562;2023-07-24T14:47:29;23.70;84.40
1956;DHT22;978;48.314;11.562;2023-07-24T14:49:57;23.60;84.30
1956;DHT22;978;48.314;11.562;2023-07-24T14:52:24;23.70;84.50
1956;DHT22;978;48.314;11.562;2023-07-24T14:54:51;23.60;84.30
1956;DHT22;978;48.314;11.562;2023-07-24T14:57:18;23.70;84.40
1956;DHT22;978;48.314;11.562;2023-07-24T14:59:44;23.60;84.40
1956;DHT22;978;48.314;11.562;2023-07-24T15:02:11;23.70;84.40
1956;DHT22;978;48.314;11.562;2023-07-24T15:04:39;23.70;84.40
1956;DHT22;978;48.314;11.562;2023-07-24T15:07:06;23.60;84.40
1956;DHT22;978;48.314;11.562;2023-07-24T15:09:33;23.60;84.40
1956;DHT22;978;48.314;11.562;2023-07-24T15:11:59;23.70;84.50
1956;DHT22;978;48.314;11.562;2023-07-24T15:14:26;23.60;84.40
1956;DHT22;978;48.314;11.562;2023-07-24T15:16:53;23.60;84.40
1956;DHT22;978;48.314;11.562;2023-07-24T15:19:22;23.60;84.40
1956;DHT22;978;48.314;11.562;2023-07-24T15:21:50;23.70;84.50
1956;DHT22;978;48.314;11.562;2023-07-24T15:24:17;23.60;84.40
1956;DHT22;978;48.314;11.562;2023-07-24T15:26:44;23.60;84.40
1956;DHT22;978;48.314;11.562;2023-07-24T15:29:12;23.70;84.50
1956;DHT22;978;48.314;11.562;2023-07-24T15:31:40;23.60;84.50
1956;DHT22;978;48.314;11.562;2023-07-24T15:34:06;23.60;84.50
1956;DHT22;978;48.314;11.562;2023-07-24T15:36:34;23.60;84.50
1956;DHT22;978;48.314;11.562;2023-07-24T15:39:03;23.60;84.50
1956;DHT22;978;48.314;11.562;2023-07-24T15:41:30;23.70;84.60
1956;DHT22;978;48.314;11.562;2023-07-24T15:43:57;23.60;84.50
1956;DHT22;978;48.314;11.562;2023-07-24T15:46:24;23.70;84.50
1956;DHT22;978;48.314;11.562;2023-07-24T15:48:53;23.60;84.50
1956;DHT22;978;48.314;11.562;2023-07-24T15:51:20;23.70;84.50
1956;DHT22;978;48.314;11.562;2023-07-24T15:53:47;23.60;84.50
1956;DHT22;978;48.314;11.562;2023-07-24T15:56:15;23.60;84.60
1956;DHT22;978;48.314;11.562;2023-07-24T15:58:42;23.60;84.70
1956;DHT22;978;48.314;11.562;2023-07-24T16:01:09;25.80;86.10
1956;DHT22;978;48.314;11.562;2023-07-24T16:03:36;23.80;84.90
1956;DHT22;978;48.314;11.562;2023-07-24T16:06:02;23.60;84.80